sensor_id;sensor_type;location;lat;lon;timestamp;P1;durP1;ratioP1;P2;durP2;ratioP2
11141;SDS011;5625;50.122;19.864;2022-08-21T00:02:14;12.77;;;11.43;;
11141;SDS011;5625;50.122;19.864;2022-08-21T00:04:42;13.27;;;11.40;;
11141;SDS011;5625;50.122;19.864;2022-08-21T00:07:23;12.47;;;10.87;;
11141;SDS011;5625;50.122;19.864;2022-08-21T00:09:51;14.77;;;11.77;;
11141;SDS011;5625;50.122;19.864;2022-08-21T00:12:20;13.67;;;11.37;;
11141;SDS011;5625;50.122;19.864;2022-08-21T00:14:48;15.33;;;11.57;;
11141;SDS011;5625;50.122;19.864;2022-08-21T00:17:23;14.13;;;11.23;;
11141;SDS011;5625;50.122;19.864;2022-08-21T00:19:52;12.97;;;10.60;;
11141;SDS011;5625;50.122;19.864;2022-08-21T00:22:20;17.03;;;11.43;;
11141;SDS011;5625;50.122;19.864;2022-08-21T00:24:48;12.63;;;11.23;;
11141;SDS011;5625;50.122;19.864;2022-08-21T00:27:16;13.93;;;10.97;;
11141;SDS011;5625;50.122;19.864;2022-08-21T00:29:44;14.07;;;12.03;;
11141;SDS011;5625;50.122;19.864;2022-08-21T00:32:12;16.70;;;12.50;;
11141;SDS011;5625;50.122;19.864;2022-08-21T00:34:41;14.30;;;12.53;;
11141;SDS011;5625;50.122;19.864;2022-08-21T00:37:09;15.10;;;12.50;;
11141;SDS011;5625;50.122;19.864;2022-08-21T00:39:37;13.60;;;11.67;;
11141;SDS011;5625;50.122;19.864;2022-08-21T00:42:06;12.70;;;11.40;;
11141;SDS011;5625;50.122;19.864;2022-08-21T00:44:34;13.43;;;11.80;;
11141;SDS011;5625;50.122;19.864;2022-08-21T00:47:02;15.33;;;12.07;;
11141;SDS011;5625;50.122;19.864;2022-08-21T00:49:30;15.50;;;11.93;;
11141;SDS011;5625;50.122;19.864;2022-08-21T00:52:00;13.13;;;11.83;;
11141;SDS011;5625;50.122;19.864;2022-08-21T00:54:29;14.87;;;11.77;;
11141;SDS011;5625;50.122;19.864;2022-08-21T00:56:59;14.30;;;11.33;;
11141;SDS011;5625;50.122;19.864;2022-08-21T00:59:31;13.93;;;12.27;;
11141;SDS011;5625;50.122;19.864;2022-08-21T01:02:02;15.77;;;13.33;;
11141;SDS011;5625;50.122;19.864;2022-08-21T01:04:33;16.20;;;13.63;;
11141;SDS011;5625;50.122;19.864;2022-08-21T01:07:03;14.90;;;13.33;;
11141;SDS011;5625;50.122;19.864;2022-08-21T01:09:33;17.23;;;13.80;;
11141;SDS011;5625;50.122;19.864;2022-08-21T01:12:01;15.83;;;12.90;;
11141;SDS011;5625;50.122;19.864;2022-08-21T01:14:30;14.43;;;12.93;;
11141;SDS011;5625;50.122;19.864;2022-08-21T01:16:59;15.37;;;12.77;;
11141;SDS011;5625;50.122;19.864;2022-08-21T01:19:30;16.87;;;13.70;;
11141;SDS011;5625;50.122;19.864;2022-08-21T01:21:59;18.47;;;13.03;;
11141;SDS011;5625;50.122;19.864;2022-08-21T01:24:28;15.47;;;12.37;;
11141;SDS011;5625;50.122;19.864;2022-08-21T01:26:57;16.03;;;13.50;;
11141;SDS011;5625;50.122;19.864;2022-08-21T01:29:29;18.17;;;13.07;;
11141;SDS011;5625;50.122;19.864;2022-08-21T01:32:02;14.50;;;12.13;;
11141;SDS011;5625;50.122;19.864;2022-08-21T01:34:33;13.63;;;12.23;;
11141;SDS011;5625;50.122;19.864;2022-08-21T01:37:04;16.87;;;12.40;;
11141;SDS011;5625;50.122;19.864;2022-08-21T01:39:33;13.43;;;12.03;;
11141;SDS011;5625;50.122;19.864;2022-08-21T01:42:02;14.27;;;11.80;;
11141;SDS011;5625;50.122;19.864;2022-08-21T01:44:31;13.13;;;11.73;;
11141;SDS011;5625;50.122;19.864;2022-08-21T01:47:00;13.83;;;11.80;;
11141;SDS011;5625;50.122;19.864;2022-08-21T01:49:30;12.80;;;11.13;;
11141;SDS011;5625;50.122;19.864;2022-08-21T01:51:58;14.00;;;11.43;;
11141;SDS011;5625;50.122;19.864;2022-08-21T01:54:28;16.57;;;11.87;;
11141;SDS011;5625;50.122;19.864;2022-08-21T01:56:56;15.10;;;12.70;;
11141;SDS011;5625;50.122;19.864;2022-08-21T01:59:26;14.10;;;12.57;;
11141;SDS011;5625;50.122;19.864;2022-08-21T02:01:55;15.23;;;13.63;;
11141;SDS011;5625;50.122;19.864;2022-08-21T02:04:23;15.87;;;13.47;;
11141;SDS011;5625;50.122;19.864;2022-08-21T02:06:51;14.07;;;12.53;;
11141;SDS011;5625;50.122;19.864;2022-08-21T02:09:20;14.40;;;12.93;;
11141;SDS011;5625;50.122;19.864;2022-08-21T02:11:51;13.80;;;12.37;;
11141;SDS011;5625;50.122;19.864;2022-08-21T02:14:19;14.77;;;13.27;;
11141;SDS011;5625;50.122;19.864;2022-08-21T02:16:58;16.23;;;14.53;;
11141;SDS011;5625;50.122;19.864;2022-08-21T02:19:34;14.97;;;13.40;;
11141;SDS011;5625;50.122;19.864;2022-08-21T02:22:06;17.80;;;14.03;;
11141;SDS011;5625;50.122;19.864;2022-08-21T02:24:35;14.93;;;13.43;;
11141;SDS011;5625;50.122;19.864;2022-08-21T02:27:21;16.07;;;14.57;;
11141;SDS011;5625;50.122;19.864;2022-08-21T02:29:52;15.93;;;13.80;;
11141;SDS011;5625;50.122;19.864;2022-08-21T02:32:20;16.07;;;14.07;;
11141;SDS011;5625;50.122;19.864;2022-08-21T02:34:48;17.63;;;15.03;;
11141;SDS011;5625;50.122;19.864;2022-08-21T02:37:16;16.80;;;15.10;;
11141;SDS011;5625;50.122;19.864;2022-08-21T02:39:44;15.87;;;14.17;;
11141;SDS011;5625;50.122;19.864;2022-08-21T02:42:13;19.03;;;15.03;;
11141;SDS011;5625;50.122;19.864;2022-08-21T02:44:42;16.27;;;14.47;;
11141;SDS011;5625;50.122;19.864;2022-08-21T02:47:10;21.63;;;15.20;;
11141;SDS011;5625;50.122;19.864;2022-08-21T02:49:38;17.57;;;14.80;;
11141;SDS011;5625;50.122;19.864;2022-08-21T02:52:06;16.30;;;14.70;;
11141;SDS011;5625;50.122;19.864;2022-08-21T02:54:34;17.17;;;15.40;;
11141;SDS011;5625;50.122;19.864;2022-08-21T02:57:02;20.03;;;16.40;;
11141;SDS011;5625;50.122;19.864;2022-08-21T02:59:30;19.60;;;16.77;;
11141;SDS011;5625;50.122;19.864;2022-08-21T03:02:00;19.30;;;17.30;;
11141;SDS011;5625;50.122;19.864;2022-08-21T03:04:28;18.30;;;16.30;;
11141;SDS011;5625;50.122;19.864;2022-08-21T03:06:56;17.07;;;15.27;;
11141;SDS011;5625;50.122;19.864;2022-08-21T03:09:24;18.17;;;15.90;;
11141;SDS011;5625;50.122;19.864;2022-08-21T03:11:52;18.00;;;15.93;;
11141;SDS011;5625;50.122;19.864;2022-08-21T03:14:20;18.80;;;15.03;;
11141;SDS011;5625;50.122;19.864;2022-08-21T03:16:48;17.27;;;14.50;;
11141;SDS011;5625;50.122;19.864;2022-08-21T03:19:18;16.77;;;15.07;;
11141;SDS011;5625;50.122;19.864;2022-08-21T03:21:46;17.57;;;14.30;;
11141;SDS011;5625;50.122;19.864;2022-08-21T03:24:14;17.97;;;15.23;;
11141;SDS011;5625;50.122;19.864;2022-08-21T03:26:46;16.17;;;14.57;;
11141;SDS011;5625;50.122;19.864;2022-08-21T03:29:15;16.70;;;14.83;;
11141;SDS011;5625;50.122;19.864;2022-08-21T03:31:43;15.93;;;13.90;;
11141;SDS011;5625;50.122;19.864;2022-08-21T03:34:11;18.23;;;16.30;;
11141;SDS011;5625;50.122;19.864;2022-08-21T03:36:40;18.73;;;16.10;;
11141;SDS011;5625;50.122;19.864;2022-08-21T03:39:09;17.40;;;15.50;;
11141;SDS011;5625;50.122;19.864;2022-08-21T03:41:37;17.23;;;15.33;;
11141;SDS011;5625;50.122;19.864;2022-08-21T03:44:05;16.10;;;14.13;;
11141;SDS011;5625;50.122;19.864;2022-08-21T03:46:33;16.40;;;14.80;;
11141;SDS011;5625;50.122;19.864;2022-08-21T03:49:02;15.93;;;14.40;;
11141;SDS011;5625;50.122;19.864;2022-08-21T03:51:30;17.33;;;14.50;;
11141;SDS011;5625;50.122;19.864;2022-08-21T03:54:01;18.67;;;15.03;;
11141;SDS011;5625;50.122;19.864;2022-08-21T03:56:29;16.23;;;14.53;;
11141;SDS011;5625;50.122;19.864;2022-08-21T03:58:57;17.47;;;15.67;;
11141;SDS011;5625;50.122;19.864;2022-08-21T04:01:25;16.83;;;14.47;;
11141;SDS011;5625;50.122;19.864;2022-08-21T04:03:54;17.70;;;15.87;;
11141;SDS011;5625;50.122;19.864;2022-08-21T04:06:22;19.10;;;16.37;;
11141;SDS011;5625;50.122;19.864;2022-08-21T04:08:51;18.07;;;16.37;;
11141;SDS011;5625;50.122;19.864;2022-08-21T04:11:20;18.13;;;16.23;;
11141;SDS011;5625;50.122;19.864;2022-08-21T04:13:48;19.60;;;16.63;;
11141;SDS011;5625;50.122;19.864;2022-08-21T04:16:16;18.63;;;16.73;;
11141;SDS011;5625;50.122;19.864;2022-08-21T04:18:45;18.07;;;16.17;;
11141;SDS011;5625;50.122;19.864;2022-08-21T04:21:13;16.77;;;14.87;;
11141;SDS011;5625;50.122;19.864;2022-08-21T04:23:42;20.73;;;16.60;;
11141;SDS011;5625;50.122;19.864;2022-08-21T04:26:10;21.67;;;16.33;;
11141;SDS011;5625;50.122;19.864;2022-08-21T04:28:39;15.73;;;13.60;;
11141;SDS011;5625;50.122;19.864;2022-08-21T04:31:09;13.60;;;12.30;;
11141;SDS011;5625;50.122;19.864;2022-08-21T04:33:38;16.17;;;12.77;;
11141;SDS011;5625;50.122;19.864;2022-08-21T04:36:06;16.40;;;14.17;;
11141;SDS011;5625;50.122;19.864;2022-08-21T04:38:34;19.87;;;15.43;;
11141;SDS011;5625;50.122;19.864;2022-08-21T04:41:08;17.57;;;15.77;;
11141;SDS011;5625;50.122;19.864;2022-08-21T04:43:37;21.27;;;16.90;;
11141;SDS011;5625;50.122;19.864;2022-08-21T04:46:07;19.00;;;17.00;;
11141;SDS011;5625;50.122;19.864;2022-08-21T04:48:39;19.43;;;17.37;;
11141;SDS011;5625;50.122;19.864;2022-08-21T04:51:09;22.40;;;18.47;;
11141;SDS011;5625;50.122;19.864;2022-08-21T04:53:43;21.40;;;18.70;;
11141;SDS011;5625;50.122;19.864;2022-08-21T04:56:18;22.33;;;19.60;;
11141;SDS011;5625;50.122;19.864;2022-08-21T04:58:49;22.97;;;19.63;;
11141;SDS011;5625;50.122;19.864;2022-08-21T05:01:22;22.77;;;20.30;;
11141;SDS011;5625;50.122;19.864;2022-08-21T05:03:54;22.30;;;19.83;;
11141;SDS011;5625;50.122;19.864;2022-08-21T05:06:25;21.43;;;19.10;;
11141;SDS011;5625;50.122;19.864;2022-08-21T05:08:55;23.87;;;19.70;;
11141;SDS011;5625;50.122;19.864;2022-08-21T05:11:27;21.40;;;19.17;;
11141;SDS011;5625;50.122;19.864;2022-08-21T05:13:56;21.53;;;17.50;;
11141;SDS011;5625;50.122;19.864;2022-08-21T05:16:26;20.73;;;17.77;;
11141;SDS011;5625;50.122;19.864;2022-08-21T05:19:02;23.57;;;18.40;;
11141;SDS011;5625;50.122;19.864;2022-08-21T05:21:31;22.23;;;18.50;;
11141;SDS011;5625;50.122;19.864;2022-08-21T05:23:59;24.60;;;21.13;;
11141;SDS011;5625;50.122;19.864;2022-08-21T05:26:27;21.00;;;18.40;;
11141;SDS011;5625;50.122;19.864;2022-08-21T05:28:56;25.13;;;20.07;;
11141;SDS011;5625;50.122;19.864;2022-08-21T05:31:24;22.80;;;20.30;;
11141;SDS011;5625;50.122;19.864;2022-08-21T05:33:53;23.20;;;18.93;;
11141;SDS011;5625;50.122;19.864;2022-08-21T05:36:22;19.27;;;17.27;;
11141;SDS011;5625;50.122;19.864;2022-08-21T05:38:50;19.07;;;16.17;;
11141;SDS011;5625;50.122;19.864;2022-08-21T05:41:18;19.73;;;17.27;;
11141;SDS011;5625;50.122;19.864;2022-08-21T05:43:47;18.63;;;16.00;;
11141;SDS011;5625;50.122;19.864;2022-08-21T05:46:15;21.57;;;17.30;;
11141;SDS011;5625;50.122;19.864;2022-08-21T05:48:43;21.33;;;18.40;;
11141;SDS011;5625;50.122;19.864;2022-08-21T05:51:13;23.37;;;16.67;;
11141;SDS011;5625;50.122;19.864;2022-08-21T05:53:43;18.87;;;16.77;;
11141;SDS011;5625;50.122;19.864;2022-08-21T05:56:12;20.67;;;16.20;;
11141;SDS011;5625;50.122;19.864;2022-08-21T05:58:41;17.00;;;15.23;;
11141;SDS011;5625;50.122;19.864;2022-08-21T06:01:09;18.63;;;16.00;;
11141;SDS011;5625;50.122;19.864;2022-08-21T06:03:39;22.13;;;17.87;;
11141;SDS011;5625;50.122;19.864;2022-08-21T06:06:09;18.77;;;16.53;;
11141;SDS011;5625;50.122;19.864;2022-08-21T06:08:38;20.80;;;16.40;;
11141;SDS011;5625;50.122;19.864;2022-08-21T06:11:06;17.73;;;15.67;;
11141;SDS011;5625;50.122;19.864;2022-08-21T06:13:37;18.27;;;16.33;;
11141;SDS011;5625;50.122;19.864;2022-08-21T06:16:13;20.13;;;17.13;;
11141;SDS011;5625;50.122;19.864;2022-08-21T06:18:43;18.73;;;16.67;;
11141;SDS011;5625;50.122;19.864;2022-08-21T06:21:12;17.53;;;15.60;;
11141;SDS011;5625;50.122;19.864;2022-08-21T06:23:42;17.37;;;15.50;;
11141;SDS011;5625;50.122;19.864;2022-08-21T06:26:12;18.70;;;15.17;;
11141;SDS011;5625;50.122;19.864;2022-08-21T06:28:41;16.93;;;15.13;;
11141;SDS011;5625;50.122;19.864;2022-08-21T06:31:10;20.17;;;14.93;;
11141;SDS011;5625;50.122;19.864;2022-08-21T06:33:39;16.63;;;13.67;;
11141;SDS011;5625;50.122;19.864;2022-08-21T06:36:08;17.30;;;15.53;;
11141;SDS011;5625;50.122;19.864;2022-08-21T06:38:36;15.33;;;13.73;;
11141;SDS011;5625;50.122;19.864;2022-08-21T06:41:06;15.27;;;13.77;;
11141;SDS011;5625;50.122;19.864;2022-08-21T06:43:35;15.53;;;14.03;;
11141;SDS011;5625;50.122;19.864;2022-08-21T06:46:10;16.77;;;13.30;;
11141;SDS011;5625;50.122;19.864;2022-08-21T06:48:38;15.00;;;13.30;;
11141;SDS011;5625;50.122;19.864;2022-08-21T06:51:06;15.50;;;13.47;;
11141;SDS011;5625;50.122;19.864;2022-08-21T06:53:34;16.37;;;13.93;;
11141;SDS011;5625;50.122;19.864;2022-08-21T06:56:03;15.60;;;13.77;;
11141;SDS011;5625;50.122;19.864;2022-08-21T06:58:32;16.20;;;14.50;;
11141;SDS011;5625;50.122;19.864;2022-08-21T07:01:01;14.33;;;12.80;;
11141;SDS011;5625;50.122;19.864;2022-08-21T07:03:34;14.87;;;13.27;;
11141;SDS011;5625;50.122;19.864;2022-08-21T07:06:04;16.97;;;14.03;;
11141;SDS011;5625;50.122;19.864;2022-08-21T07:08:33;15.23;;;13.63;;
11141;SDS011;5625;50.122;19.864;2022-08-21T07:13:36;15.90;;;13.50;;
11141;SDS011;5625;50.122;19.864;2022-08-21T07:16:04;17.13;;;14.10;;
11141;SDS011;5625;50.122;19.864;2022-08-21T07:18:32;15.13;;;13.63;;
11141;SDS011;5625;50.122;19.864;2022-08-21T07:21:01;16.63;;;14.07;;
11141;SDS011;5625;50.122;19.864;2022-08-21T07:23:31;15.47;;;13.83;;
11141;SDS011;5625;50.122;19.864;2022-08-21T07:26:01;14.30;;;12.80;;
11141;SDS011;5625;50.122;19.864;2022-08-21T07:28:30;15.47;;;13.73;;
11141;SDS011;5625;50.122;19.864;2022-08-21T07:31:00;16.87;;;13.70;;
11141;SDS011;5625;50.122;19.864;2022-08-21T07:33:30;15.90;;;14.33;;
11141;SDS011;5625;50.122;19.864;2022-08-21T07:36:00;15.83;;;13.50;;
11141;SDS011;5625;50.122;19.864;2022-08-21T07:38:28;14.83;;;13.43;;
11141;SDS011;5625;50.122;19.864;2022-08-21T07:40:56;15.13;;;13.40;;
11141;SDS011;5625;50.122;19.864;2022-08-21T07:43:26;15.20;;;13.60;;
11141;SDS011;5625;50.122;19.864;2022-08-21T07:45:55;15.70;;;13.93;;
11141;SDS011;5625;50.122;19.864;2022-08-21T07:48:24;16.40;;;14.53;;
11141;SDS011;5625;50.122;19.864;2022-08-21T07:50:53;14.90;;;13.40;;
11141;SDS011;5625;50.122;19.864;2022-08-21T07:53:21;16.47;;;14.87;;
11141;SDS011;5625;50.122;19.864;2022-08-21T07:55:49;16.90;;;14.27;;
11141;SDS011;5625;50.122;19.864;2022-08-21T07:58:24;15.33;;;13.73;;
11141;SDS011;5625;50.122;19.864;2022-08-21T08:00:52;15.77;;;14.03;;
11141;SDS011;5625;50.122;19.864;2022-08-21T08:03:20;18.27;;;15.07;;
11141;SDS011;5625;50.122;19.864;2022-08-21T08:05:55;16.07;;;13.93;;
11141;SDS011;5625;50.122;19.864;2022-08-21T08:08:25;16.20;;;14.47;;
11141;SDS011;5625;50.122;19.864;2022-08-21T08:10:53;17.30;;;15.10;;
11141;SDS011;5625;50.122;19.864;2022-08-21T08:13:24;17.30;;;14.80;;
11141;SDS011;5625;50.122;19.864;2022-08-21T08:15:52;15.73;;;14.13;;
11141;SDS011;5625;50.122;19.864;2022-08-21T08:18:20;15.30;;;13.77;;
11141;SDS011;5625;50.122;19.864;2022-08-21T08:20:48;15.47;;;13.87;;
11141;SDS011;5625;50.122;19.864;2022-08-21T08:23:17;16.70;;;14.20;;
11141;SDS011;5625;50.122;19.864;2022-08-21T08:25:45;16.07;;;14.47;;
11141;SDS011;5625;50.122;19.864;2022-08-21T08:28:14;16.20;;;14.23;;
11141;SDS011;5625;50.122;19.864;2022-08-21T08:30:43;14.83;;;13.43;;
11141;SDS011;5625;50.122;19.864;2022-08-21T08:33:11;15.40;;;13.93;;
11141;SDS011;5625;50.122;19.864;2022-08-21T08:35:40;14.37;;;13.07;;
11141;SDS011;5625;50.122;19.864;2022-08-21T08:38:09;14.77;;;13.37;;
11141;SDS011;5625;50.122;19.864;2022-08-21T08:40:39;16.20;;;13.33;;
11141;SDS011;5625;50.122;19.864;2022-08-21T08:43:13;14.87;;;13.40;;
11141;SDS011;5625;50.122;19.864;2022-08-21T08:45:42;16.27;;;13.80;;
11141;SDS011;5625;50.122;19.864;2022-08-21T08:48:14;15.38;;;13.77;;
11141;SDS011;5625;50.122;19.864;2022-08-21T08:50:56;15.90;;;13.83;;
11141;SDS011;5625;50.122;19.864;2022-08-21T08:53:29;16.90;;;12.87;;
11141;SDS011;5625;50.122;19.864;2022-08-21T08:56:10;16.57;;;14.13;;
11141;SDS011;5625;50.122;19.864;2022-08-21T08:58:39;15.35;;;13.70;;
11141;SDS011;5625;50.122;19.864;2022-08-21T09:01:13;14.73;;;12.77;;
11141;SDS011;5625;50.122;19.864;2022-08-21T09:03:46;16.67;;;14.73;;
11141;SDS011;5625;50.122;19.864;2022-08-21T09:06:19;15.38;;;13.93;;
11141;SDS011;5625;50.122;19.864;2022-08-21T09:08:59;16.00;;;13.65;;
11141;SDS011;5625;50.122;19.864;2022-08-21T09:11:41;15.02;;;13.52;;
11141;SDS011;5625;50.122;19.864;2022-08-21T09:14:17;15.20;;;13.63;;
11141;SDS011;5625;50.122;19.864;2022-08-21T09:16:54;16.13;;;13.45;;
11141;SDS011;5625;50.122;19.864;2022-08-21T09:19:36;14.50;;;13.02;;
11141;SDS011;5625;50.122;19.864;2022-08-21T09:22:15;17.42;;;14.88;;
11141;SDS011;5625;50.122;19.864;2022-08-21T09:24:53;16.50;;;14.63;;
11141;SDS011;5625;50.122;19.864;2022-08-21T09:27:29;16.00;;;14.30;;
11141;SDS011;5625;50.122;19.864;2022-08-21T09:29:59;15.40;;;13.80;;
11141;SDS011;5625;50.122;19.864;2022-08-21T09:32:30;16.60;;;14.15;;
11141;SDS011;5625;50.122;19.864;2022-08-21T09:35:04;15.73;;;14.23;;
11141;SDS011;5625;50.122;19.864;2022-08-21T09:37:35;16.05;;;14.32;;
11141;SDS011;5625;50.122;19.864;2022-08-21T09:40:15;16.58;;;14.85;;
11141;SDS011;5625;50.122;19.864;2022-08-21T09:43:18;18.85;;;16.20;;
11141;SDS011;5625;50.122;19.864;2022-08-21T09:46:05;17.83;;;15.98;;
11141;SDS011;5625;50.122;19.864;2022-08-21T09:48:40;20.98;;;15.07;;
11141;SDS011;5625;50.122;19.864;2022-08-21T09:51:13;19.77;;;15.45;;
11141;SDS011;5625;50.122;19.864;2022-08-21T09:53:45;16.38;;;14.68;;
11141;SDS011;5625;50.122;19.864;2022-08-21T09:56:17;16.85;;;15.15;;
11141;SDS011;5625;50.122;19.864;2022-08-21T09:59:17;16.52;;;14.90;;
11141;SDS011;5625;50.122;19.864;2022-08-21T10:01:49;18.38;;;14.95;;
11141;SDS011;5625;50.122;19.864;2022-08-21T10:04:22;16.10;;;14.52;;
11141;SDS011;5625;50.122;19.864;2022-08-21T10:06:54;14.70;;;13.25;;
11141;SDS011;5625;50.122;19.864;2022-08-21T10:09:34;15.23;;;13.80;;
11141;SDS011;5625;50.122;19.864;2022-08-21T10:12:08;13.93;;;12.70;;
11141;SDS011;5625;50.122;19.864;2022-08-21T10:14:47;15.05;;;13.65;;
11141;SDS011;5625;50.122;19.864;2022-08-21T10:17:25;15.00;;;13.55;;
11141;SDS011;5625;50.122;19.864;2022-08-21T10:20:04;14.85;;;13.35;;
11141;SDS011;5625;50.122;19.864;2022-08-21T10:22:38;14.80;;;12.52;;
11141;SDS011;5625;50.122;19.864;2022-08-21T10:25:14;15.05;;;12.82;;
11141;SDS011;5625;50.122;19.864;2022-08-21T10:27:51;17.17;;;14.98;;
11141;SDS011;5625;50.122;19.864;2022-08-21T10:30:33;17.25;;;15.57;;
11141;SDS011;5625;50.122;19.864;2022-08-21T10:33:13;18.85;;;16.92;;
11141;SDS011;5625;50.122;19.864;2022-08-21T10:35:51;18.63;;;15.98;;
11141;SDS011;5625;50.122;19.864;2022-08-21T10:41:41;20.90;;;15.98;;
11141;SDS011;5625;50.122;19.864;2022-08-21T10:44:26;17.25;;;15.65;;
11141;SDS011;5625;50.122;19.864;2022-08-21T10:47:08;16.55;;;14.93;;
11141;SDS011;5625;50.122;19.864;2022-08-21T10:49:43;17.23;;;15.48;;
11141;SDS011;5625;50.122;19.864;2022-08-21T10:52:22;17.60;;;15.93;;
11141;SDS011;5625;50.122;19.864;2022-08-21T10:55:10;16.95;;;15.32;;
11141;SDS011;5625;50.122;19.864;2022-08-21T10:57:42;18.25;;;16.38;;
11141;SDS011;5625;50.122;19.864;2022-08-21T11:00:15;17.25;;;15.63;;
11141;SDS011;5625;50.122;19.864;2022-08-21T11:02:49;18.42;;;16.58;;
11141;SDS011;5625;50.122;19.864;2022-08-21T11:05:24;20.42;;;16.60;;
11141;SDS011;5625;50.122;19.864;2022-08-21T11:10:44;19.63;;;16.83;;
11141;SDS011;5625;50.122;19.864;2022-08-21T11:13:27;21.80;;;17.75;;
11141;SDS011;5625;50.122;19.864;2022-08-21T11:16:02;20.75;;;17.08;;
11141;SDS011;5625;50.122;19.864;2022-08-21T11:18:36;23.02;;;17.73;;
11141;SDS011;5625;50.122;19.864;2022-08-21T11:21:10;20.08;;;17.55;;
11141;SDS011;5625;50.122;19.864;2022-08-21T11:24:47;24.27;;;19.10;;
11141;SDS011;5625;50.122;19.864;2022-08-21T11:27:23;23.83;;;17.83;;
11141;SDS011;5625;50.122;19.864;2022-08-21T11:29:57;20.52;;;16.52;;
11141;SDS011;5625;50.122;19.864;2022-08-21T11:32:36;20.33;;;15.10;;
11141;SDS011;5625;50.122;19.864;2022-08-21T11:35:17;17.17;;;12.52;;
11141;SDS011;5625;50.122;19.864;2022-08-21T11:37:56;12.23;;;10.35;;
11141;SDS011;5625;50.122;19.864;2022-08-21T11:40:44;13.63;;;9.80;;
11141;SDS011;5625;50.122;19.864;2022-08-21T11:43:24;12.73;;;8.95;;
11141;SDS011;5625;50.122;19.864;2022-08-21T11:46:03;12.50;;;8.93;;
11141;SDS011;5625;50.122;19.864;2022-08-21T11:48:48;12.48;;;7.72;;
11141;SDS011;5625;50.122;19.864;2022-08-21T11:51:36;11.35;;;8.32;;
11141;SDS011;5625;50.122;19.864;2022-08-21T11:54:16;11.40;;;7.70;;
11141;SDS011;5625;50.122;19.864;2022-08-21T11:56:54;9.70;;;7.00;;
11141;SDS011;5625;50.122;19.864;2022-08-21T11:59:40;9.20;;;6.43;;
11141;SDS011;5625;50.122;19.864;2022-08-21T12:02:16;6.00;;;5.38;;
11141;SDS011;5625;50.122;19.864;2022-08-21T12:04:48;7.90;;;6.10;;
11141;SDS011;5625;50.122;19.864;2022-08-21T12:07:37;8.05;;;6.55;;
11141;SDS011;5625;50.122;19.864;2022-08-21T12:10:07;10.48;;;6.88;;
11141;SDS011;5625;50.122;19.864;2022-08-21T12:12:42;9.77;;;6.78;;
11141;SDS011;5625;50.122;19.864;2022-08-21T12:15:25;10.47;;;7.37;;
11141;SDS011;5625;50.122;19.864;2022-08-21T12:17:59;9.63;;;6.63;;
11141;SDS011;5625;50.122;19.864;2022-08-21T12:20:40;7.70;;;6.90;;
11141;SDS011;5625;50.122;19.864;2022-08-21T12:23:25;8.90;;;6.90;;
11141;SDS011;5625;50.122;19.864;2022-08-21T12:25:59;9.47;;;7.43;;
11141;SDS011;5625;50.122;19.864;2022-08-21T12:28:31;11.10;;;7.97;;
11141;SDS011;5625;50.122;19.864;2022-08-21T12:31:00;10.60;;;7.53;;
11141;SDS011;5625;50.122;19.864;2022-08-21T12:33:30;7.87;;;6.60;;
11141;SDS011;5625;50.122;19.864;2022-08-21T12:36:02;9.20;;;7.20;;
11141;SDS011;5625;50.122;19.864;2022-08-21T12:38:39;9.37;;;7.07;;
11141;SDS011;5625;50.122;19.864;2022-08-21T12:41:16;8.60;;;6.53;;
11141;SDS011;5625;50.122;19.864;2022-08-21T12:43:56;9.67;;;6.67;;
11141;SDS011;5625;50.122;19.864;2022-08-21T12:46:37;7.40;;;6.03;;
11141;SDS011;5625;50.122;19.864;2022-08-21T12:49:08;6.50;;;5.23;;
11141;SDS011;5625;50.122;19.864;2022-08-21T12:52:01;5.37;;;4.80;;
11141;SDS011;5625;50.122;19.864;2022-08-21T12:54:37;7.67;;;5.07;;
11141;SDS011;5625;50.122;19.864;2022-08-21T12:57:08;6.30;;;4.73;;
11141;SDS011;5625;50.122;19.864;2022-08-21T12:59:45;5.60;;;4.60;;
11141;SDS011;5625;50.122;19.864;2022-08-21T13:02:20;5.33;;;4.33;;
11141;SDS011;5625;50.122;19.864;2022-08-21T13:04:51;4.33;;;3.70;;
11141;SDS011;5625;50.122;19.864;2022-08-21T13:07:24;6.70;;;4.13;;
11141;SDS011;5625;50.122;19.864;2022-08-21T13:09:56;4.00;;;3.37;;
11141;SDS011;5625;50.122;19.864;2022-08-21T13:12:26;7.13;;;3.93;;
11141;SDS011;5625;50.122;19.864;2022-08-21T13:15:00;4.77;;;3.30;;
11141;SDS011;5625;50.122;19.864;2022-08-21T13:17:36;4.37;;;3.30;;
11141;SDS011;5625;50.122;19.864;2022-08-21T13:20:07;3.47;;;2.73;;
11141;SDS011;5625;50.122;19.864;2022-08-21T13:22:45;4.27;;;3.00;;
11141;SDS011;5625;50.122;19.864;2022-08-21T13:25:15;5.30;;;2.77;;
11141;SDS011;5625;50.122;19.864;2022-08-21T13:27:55;3.17;;;2.87;;
11141;SDS011;5625;50.122;19.864;2022-08-21T13:30:30;4.03;;;2.80;;
11141;SDS011;5625;50.122;19.864;2022-08-21T13:32:58;3.00;;;2.70;;
11141;SDS011;5625;50.122;19.864;2022-08-21T13:35:29;3.37;;;3.07;;
11141;SDS011;5625;50.122;19.864;2022-08-21T13:38:03;4.23;;;3.00;;
11141;SDS011;5625;50.122;19.864;2022-08-21T13:40:37;5.53;;;3.37;;
11141;SDS011;5625;50.122;19.864;2022-08-21T13:43:10;3.00;;;2.60;;
11141;SDS011;5625;50.122;19.864;2022-08-21T13:45:49;3.17;;;2.80;;
11141;SDS011;5625;50.122;19.864;2022-08-21T13:48:18;3.53;;;3.07;;
11141;SDS011;5625;50.122;19.864;2022-08-21T13:50:47;3.10;;;2.90;;
11141;SDS011;5625;50.122;19.864;2022-08-21T13:53:21;4.07;;;2.67;;
11141;SDS011;5625;50.122;19.864;2022-08-21T13:55:54;4.00;;;2.97;;
11141;SDS011;5625;50.122;19.864;2022-08-21T13:58:26;3.37;;;3.07;;
11141;SDS011;5625;50.122;19.864;2022-08-21T14:00:57;3.00;;;2.80;;
11141;SDS011;5625;50.122;19.864;2022-08-21T14:03:33;3.40;;;3.10;;
11141;SDS011;5625;50.122;19.864;2022-08-21T14:06:10;3.63;;;3.33;;
11141;SDS011;5625;50.122;19.864;2022-08-21T14:08:39;4.10;;;3.50;;
11141;SDS011;5625;50.122;19.864;2022-08-21T14:11:10;3.87;;;3.53;;
11141;SDS011;5625;50.122;19.864;2022-08-21T14:13:40;4.37;;;3.80;;
11141;SDS011;5625;50.122;19.864;2022-08-21T14:16:14;3.80;;;3.10;;
11141;SDS011;5625;50.122;19.864;2022-08-21T14:18:46;3.80;;;2.97;;
11141;SDS011;5625;50.122;19.864;2022-08-21T14:21:24;3.23;;;2.93;;
11141;SDS011;5625;50.122;19.864;2022-08-21T14:23:59;4.00;;;2.80;;
11141;SDS011;5625;50.122;19.864;2022-08-21T14:26:32;2.37;;;2.17;;
11141;SDS011;5625;50.122;19.864;2022-08-21T14:29:08;2.40;;;2.20;;
11141;SDS011;5625;50.122;19.864;2022-08-21T14:31:38;2.40;;;2.17;;
11141;SDS011;5625;50.122;19.864;2022-08-21T14:34:09;3.10;;;2.63;;
11141;SDS011;5625;50.122;19.864;2022-08-21T14:36:45;4.43;;;2.90;;
11141;SDS011;5625;50.122;19.864;2022-08-21T14:39:13;2.47;;;2.27;;
11141;SDS011;5625;50.122;19.864;2022-08-21T14:41:41;2.70;;;2.50;;
11141;SDS011;5625;50.122;19.864;2022-08-21T14:44:12;2.87;;;2.20;;
11141;SDS011;5625;50.122;19.864;2022-08-21T14:46:42;3.33;;;2.13;;
11141;SDS011;5625;50.122;19.864;2022-08-21T14:49:22;2.70;;;1.90;;
11141;SDS011;5625;50.122;19.864;2022-08-21T14:51:52;2.03;;;1.77;;
11141;SDS011;5625;50.122;19.864;2022-08-21T14:54:23;1.80;;;1.70;;
11141;SDS011;5625;50.122;19.864;2022-08-21T14:56:57;1.70;;;1.60;;
11141;SDS011;5625;50.122;19.864;2022-08-21T14:59:28;3.83;;;2.17;;
11141;SDS011;5625;50.122;19.864;2022-08-21T15:01:58;2.27;;;2.00;;
11141;SDS011;5625;50.122;19.864;2022-08-21T15:04:27;2.03;;;1.83;;